CheckWX is a tool to help pilots better visualize weather data.  It is not intended as a substitute for an official pre-flight weather briefing.

07:13:17 UTC

KHAO METAR
Butler Co Regional-Hogan Field Airport
Hamilton, Ohio, USA
Current

20 mins ago

KHAO 260653Z AUTO 00000KT 6SM BR CLR 19/19 A3005 RMK AO2 SLP171 T01940189
Observed
May-26 @ 06:53 UTC
Visibility
6 SM
Flight Rules
VFR
Conditions
Mist
Cloud Levels
  • Clear skies
Temperature
19°C / 66°F
Dewpoint
19°C / 66°F
Humidity
100%
Altimeter
30.05" Hg
Pressure
1017.62 hPa
Previous

38 mins ago

KHAO 260635Z AUTO 00000KT 3SM BR CLR 19/18 A3005 RMK AO2 T01940183
Observed
May-26 @ 06:35 UTC
Visibility
3 SM
Flight Rules
MVFR
Conditions
Mist
Cloud Levels
  • Clear skies
Temperature
19°C / 66°F
Dewpoint
18°C / 64°F
Humidity
94%
Altimeter
30.05" Hg
Pressure
1017.62 hPa
Previous

47 mins ago

KHAO 260626Z AUTO 00000KT 1 3/4SM BR CLR 19/19 A3005 RMK AO2 T01940189
Observed
May-26 @ 06:26 UTC
Visibility
1 3/4 SM
Flight Rules
IFR
Conditions
Mist
Cloud Levels
  • Clear skies
Temperature
19°C / 66°F
Dewpoint
19°C / 66°F
Humidity
100%
Altimeter
30.05" Hg
Pressure
1017.62 hPa